Cardiff parkrun # 605 - 13/07/2019

PosparkrunnerTimeAge
Cat
Age
Grade
Gender
Pos
ClubNoteTotal Runs
1Daniel HAMILTON15:27SM25-2983.50 %M1Abingdon ACNew PB!26
2Unknown
3Dylan NAZARETH16:45SM18-1979.60 %M3Cardiff ArchersPB stays at 00:16:1848Member of the parkrun 10 Club
4Gary W BROWN16:47VM35-3980.73 %M4Penarth & Dinas RunnersNew PB!28
5Alex JACKSON16:50JM15-1780.20 %M5Cardiff AACPB stays at 00:16:2920Member of the parkrun 10 Club
6Andrew HOW16:51VM40-4481.60 %M6Hendre Lake Running ClubNew PB!117Member of the parkrun 100 Club
7Unknown
8Stuart CREES17:11VM40-4480.02 %M8Les Croupiers RCPB stays at 00:16:12270Member of the parkrun 250 Club
9Simon MEAD17:20VM45-4982.40 %M9Ramsey Road RunnersFirst Timer!61Member of the parkrun 50 Club
10Aled BURD17:38SM20-2473.16 %M10New PB!24Member of the parkrun 10 Club
11Stephen BARTLETT18:00VM50-5482.59 %M11PB stays at 00:16:5735
12Harry SMITH18:05SM20-2471.34 %M12Wales University Officer Training CorpsPB stays at 00:17:5325
13Ake FAGERENG18:11VM35-3973.42 %M13Les Croupiers RCPB stays at 00:17:0178Member of the parkrun 50 Club
14David John WILLIAMS18:11VM35-3973.97 %M14Les Croupiers RCPB stays at 00:15:5965Member of the parkrun 50 Club
15Mark FURNISH18:14SM30-3471.12 %M15PB stays at 00:17:1926
16Unknown
17James THOMAS18:37SM25-2969.38 %M17First Timer!22
18Charlotte TOWERS18:38SW30-3479.43 %F1Canton ChargersPB stays at 00:18:1543
19Dave JAMES18:39VM60-6486.77 %M18Les Croupiers RCPB stays at 00:16:5489Member of the parkrun 50 Club
20Rian O'DWYER18:46VM45-4975.58 %M19New PB!42
21Lee GWYN18:51VM35-3969.94 %M20PB stays at 00:18:25240Member of the parkrun 100 Club
22George WATKINS18:53SM20-2468.31 %M21PB stays at 00:18:2522
23Thomas CROMARTY18:55VM35-3969.69 %M22PB stays at 00:17:4546
24Owain DOLAN GRAY18:59SM25-2967.95 %M23First Timer!1
25Tom DUCK19:00VM40-4471.84 %M24New PB!6
26Gareth MORGAN19:03VM45-4975.59 %M25Les Croupiers RCNew PB!17
27Kevin PLANK19:04VM45-4976.14 %M26San Domenico RCPB stays at 00:18:44280Member of the parkrun 250 Club
28Gareth PHILLIPS19:09VM35-3970.76 %M27PB stays at 00:18:35135Member of the parkrun 100 Club
29Hywel EDWARDS19:15VM45-4974.81 %M28San Domenico RCPB stays at 00:18:36119Member of the parkrun 100 Club
30John LIGHT19:21VM40-4470.54 %M29San Domenico RCNew PB!66Member of the parkrun 50 ClubMember of the parkrun v25 Club
31Andy GARDINER19:22SM30-3467.13 %M30San Domenico RCPB stays at 00:16:51379Member of the parkrun 250 ClubMember of the parkrun v25 Club
32Ben LITTLEJOHNS19:25SM30-3466.78 %M31PB stays at 00:19:2554Member of the parkrun 50 Club
33Adrian CRUJEIRAS19:29SM25-2966.30 %M32New PB!4
34Marcus MEYRICK19:35VM45-4974.72 %M33Les Croupiers RCPB stays at 00:18:53178Member of the parkrun 100 ClubMember of the parkrun v25 Club
35Matt GOVIER19:36VM45-4973.47 %M34Les Croupiers RCPB stays at 00:17:36242Member of the parkrun 100 ClubMember of the parkrun v25 Club
36Stephen BUTLER19:37VM45-4973.41 %M35New PB!13
37Louise FLYNN19:44VW35-3975.76 %F2PB stays at 00:19:3322
38Unknown
39Liam O'BRIEN19:48SM30-3466.25 %M37New PB!5
40Edward EVANS19:50SM20-2465.04 %M38First Timer!1
41Rhys GRIFFITH19:51VM35-3967.76 %M39Hendre Lake Running ClubPB stays at 00:18:3247
42Craig BLAKE19:51SM30-3465.16 %M40CDF RunnersNew PB!39
43Chris TOWERS19:58SM30-3465.11 %M41CDF RunnersPB stays at 00:19:5165Member of the parkrun 50 Club
44Stephan NOYVIRT20:01SM18-1966.61 %M42Cardiff AACPB stays at 00:19:1951Member of the parkrun 50 Club
45Luke HAWKER20:06SM25-2964.26 %M43New PB!8
46David MORT20:08SM30-3465.15 %M44Cardiff TriathletesPB stays at 00:17:5417
47Seren RAYMENT20:15JW15-1774.65 %F3Cardiff ArchersPB stays at 00:19:4610Member of the parkrun 10 Club
48Gemma LUCKETT20:17SW25-2972.97 %F4Les Croupiers RCPB stays at 00:19:3223
49Jo TEMPLE20:18SW20-2472.91 %F5First Timer!41
50Alex BEARD20:18VM50-5474.47 %M45PB stays at 00:20:1426
51Arianwen THOMAS20:22JW11-1478.40 %F6First Timer!6
52Bethany GOLD20:25JW15-1774.94 %F7Cardiff AACPB stays at 00:19:4560Member of the parkrun 50 Club
53Brian DIAS20:26SM30-3464.19 %M46Cardiff AACPB stays at 00:17:34254Member of the parkrun 250 ClubMember of the parkrun v25 Club
54Daniel LEWIS20:26VM40-4468.84 %M47San Domenico RCPB stays at 00:17:52102Member of the parkrun 100 ClubMember of the parkrun v25 Club
55Richard WILLIAMS20:31VM50-5471.89 %M48PB stays at 00:20:0550Member of the parkrun 50 Club
56Dean MCMINN20:39VM40-4468.12 %M49Outdoor Fitness Running ClubPB stays at 00:20:3522
57Alice JOHNSTON20:40SW25-2971.61 %F8Les Croupiers RCPB stays at 00:19:17120Member of the parkrun 100 Club
58Sandy JOHNSTON20:42VM70-7485.19 %M50Les Croupiers RCPB stays at 00:18:2099Member of the parkrun 50 Club
59Richard DAVIES20:45VM50-5472.21 %M51Les Croupiers RCPB stays at 00:19:43108Member of the parkrun 100 Club
60David Paul BIRD20:47VM40-4466.64 %M52CanixPB stays at 00:19:4255Member of the parkrun 50 Club
61Rhys SIMMONDS20:50JM15-1765.76 %M53PB stays at 00:20:2327Member of the parkrun 10 Club
62Rhys SMART20:50JM11-1468.08 %M54Cardiff AACNew PB!6
63Joe HARGREAVES20:52VM35-3963.98 %M55PB stays at 00:20:5150Member of the parkrun 50 Club
64Unknown
65Robert KNOWLES20:55SM20-2462.31 %M57Cuth's Running ClubNew PB!30
66Tim M LEWIS20:55SM30-3462.71 %M58Les Croupiers RCPB stays at 00:17:2985Member of the parkrun 50 Club
67Unknown
68Ian HERBERT20:58VM55-5973.29 %M60PB stays at 00:20:2136
69Steffan MASON-SMITH21:02JM11-1467.43 %M61PB stays at 00:20:4660Member of the parkrun 50 Club
70Chris GUBBY21:04VM35-3962.97 %M62PB stays at 00:20:41118Member of the parkrun 100 Club
71Andrew UNDERHILL21:04VM35-3962.58 %M63San Domenico RCPB stays at 00:20:51170Member of the parkrun 100 Club
72Alex PRICE21:07VM35-3964.17 %M64PB stays at 00:20:4424
73Hari ELIAS21:08JM11-1467.11 %M65Cardiff AACNew PB!2
74David HARNESS21:11VM45-4967.43 %M66San Domenico RCPB stays at 00:19:4817
75Christopher LACEY21:16VM45-4968.26 %M67PB stays at 00:19:5164Member of the parkrun 50 Club
76James MATTHEWS21:18VM55-5974.65 %M68New PB!6
77David FRANCIS21:19SM30-3460.83 %M69First Timer!8
78Matthew EVANS21:20SM25-2960.55 %M70PB stays at 00:20:3620
79Gareth CHAMBERLAIN21:23VM35-3961.65 %M71PB stays at 00:20:1934
80Matthew SIGGINS21:23SM25-2960.33 %M72New PB!10
81Stephanie MALCOLM21:26SW30-3469.21 %F9New PB!5
82Lola OSMOND21:27JW11-1473.27 %F10PB stays at 00:20:1631Member of the parkrun 10 Club
83Mark HUTCHINGS21:28VM55-5971.58 %M73Canton ChargersPB stays at 00:20:08175Member of the parkrun 100 Club
84Ryan HARTLEY21:30VM40-4465.43 %M74PB stays at 00:20:4337
85David DEWEY21:33VM35-3961.95 %M75PB stays at 00:19:44100Member of the parkrun 100 Club
86Alex AHMED21:34VM35-3961.90 %M76CSSC Sports & LeisurePB stays at 00:20:2024
87Dominic MELVILLE21:37VM45-4966.08 %M77PB stays at 00:20:3769Member of the parkrun 50 Club
88Mike HOGAN21:39VM65-6979.68 %M78PB stays at 00:21:33195Member of the parkrun 100 Club
89Steven METHERELL21:40SM25-2959.54 %M79PB stays at 00:20:4293Member of the parkrun 50 Club
90Harry TURNER21:42JM11-1470.51 %M80Cardiff AACPB stays at 00:21:062
91Matt TURNER21:43VM40-4463.78 %M81First Timer!1
92Jeremy EDWARDS21:44VM55-5971.93 %M82PB stays at 00:20:41391Member of the parkrun 250 ClubMember of the parkrun v25 Club
93Matthew GODFREY21:46VM40-4464.17 %M83Les Croupiers RCPB stays at 00:19:5287Member of the parkrun 50 Club
94Helen OLIVER21:46SW25-2967.99 %F11Les Croupiers RCPB stays at 00:20:0289Member of the parkrun 50 Club
95Tony BARBER21:47VM45-4965.11 %M84PB stays at 00:21:0623
96Mark MCWILLIAM21:55VM50-5467.30 %M85PB stays at 00:19:5742
97Matthew CUYES21:57SM25-2958.85 %M86PB stays at 00:21:5461Member of the parkrun 50 Club
98Sam LEONARD21:59SM25-2958.68 %M87New PB!52Member of the parkrun 50 Club
99Matthew MARTIN22:00SM25-2958.64 %M88New PB!13
100Michael MURPHY22:01VM65-6976.15 %M89Les Croupiers RCPB stays at 00:18:2876Member of the parkrun 50 Club
101Andrew POWELL-CHANDLER22:02VM55-5970.95 %M90PB stays at 00:19:28124Member of the parkrun 100 Club
102Philip COLLINS22:03VM45-4965.84 %M91PB stays at 00:20:52133Member of the parkrun 100 Club
103Mark PHILPOT22:04SM25-2958.46 %M92First Timer!1
104Michael CRANWELL22:04VM65-6978.17 %M93Les Croupiers RCPB stays at 00:19:5591Member of the parkrun 50 Club
105Matthew BRERETON22:05VM40-4461.81 %M94PB stays at 00:20:23118Member of the parkrun 100 Club
106Tom JAMES22:05VM35-3960.45 %M95PB stays at 00:20:2120
107Evan BIRD22:06JM11-1465.61 %M96New PB!24Member of the parkrun 10 Club
108Bethan MEYRICK22:07JW15-1770.08 %F12Cardiff AACPB stays at 00:19:4477Member of the parkrun 50 ClubMember of the parkrun v25 Club
109Unknown
110Unknown
111Ian GREENWAY22:16VM55-5970.81 %M99PB stays at 00:21:5912
112Caroline BASSETT22:17VW35-3967.54 %F13PB stays at 00:20:36155Member of the parkrun 100 ClubMember of the parkrun v25 Club
113Alan STONE22:17VM55-5970.76 %M100Mynyddwyr De CymruPB stays at 00:19:54103Member of the parkrun 100 Club
114Carol OSWELL22:19VW50-5479.01 %F14PB stays at 00:21:42149Member of the parkrun 100 Club
115Eleanor REYNOLDS22:19SW20-2466.32 %F15New PB!41
116Christopher WILKS22:21SM30-3458.17 %M101PB stays at 00:22:1133
117Paul GOODRIDGE22:25VM40-4462.75 %M102New PB!15
118Llyr ROBERTS22:26VM55-5968.50 %M103PB stays at 00:20:02194Member of the parkrun 100 Club
119Jonathan WATTS22:27VM35-3958.72 %M104PB stays at 00:21:3534
120Anna B22:28SW30-3466.02 %F16First Timer!60Member of the parkrun 50 Club
121Paul MORRIS22:29VM60-6471.31 %M105Les Croupiers RCPB stays at 00:19:03338Member of the parkrun 250 Club
122David E WILLIAMS22:29VM55-5968.94 %M106Les Croupiers RCPB stays at 00:19:34410Member of the parkrun 250 ClubMember of the parkrun v25 Club
123Rebeca HARRIES22:31JW1075.80 %F17Cardiff AACNew PB!72Member of the parkrun 50 Club
124Ryan TIMSON22:34SM25-2957.24 %M107First Timer!2
125Sai GOPAL22:36VM50-5465.27 %M108Les Croupiers RCPB stays at 00:22:14146Member of the parkrun 100 Club
126Ashley BLAIR22:36SM25-2957.08 %M109First Timer!4
127Andrew BLAIR22:36VM50-5467.40 %M110Les Croupiers RCPB stays at 00:17:34102Member of the parkrun 100 ClubMember of the parkrun v25 Club
128Joe LUCKETT22:38SM25-2957.00 %M111PB stays at 00:21:4825
129Andrew James PRATT22:40VM35-3958.16 %M112PB stays at 00:22:0193Member of the parkrun 50 Club
130Rhodri HANMER22:45VM35-3958.32 %M113PB stays at 00:21:5027
131Jamie HILTON22:46JM15-1760.18 %M114PB stays at 00:20:4042Member of the parkrun 10 Club
132Robert POWELL22:47VM50-5466.35 %M115PB stays at 00:21:13206Member of the parkrun 100 Club
133Leanne SANDIFER22:48SW30-3464.91 %F18Reigate Priory ACNew PB!23
134James BRUCE22:48VM45-4962.21 %M116Les Croupiers RCPB stays at 00:18:22100Member of the parkrun 100 Club
135Chris WOJCIKOWSKI22:49SM25-2956.61 %M117PB stays at 00:21:0929
136Ian CRAIG22:50VM60-6470.22 %M118PB stays at 00:22:2646
137Unknown
138Rebecca SAYERS22:52VW40-4467.27 %F19PB stays at 00:22:4636
139Adam WEBB22:52VM35-3958.82 %M120PB stays at 00:22:464
140Tim WILKINSON22:53VM40-4459.65 %M121PB stays at 00:21:10109Member of the parkrun 100 Club
141Lucy WILLIAMS22:55SW30-3464.58 %F20PB stays at 00:21:1380Member of the parkrun 50 Club
142Dan MARSHALL22:57SM18-1957.44 %M122John Snow Running ClubFirst Timer!3
143John MORGAN23:02VM55-5967.29 %M123Bridgend ACPB stays at 00:17:55291Member of the parkrun 250 Club
144John KERRY23:03VM60-6470.21 %M124Caerleon RCPB stays at 00:22:1435
145Gwyn JONES23:07VM55-5966.47 %M125Les Croupiers RCPB stays at 00:20:53382Member of the parkrun 250 ClubMember of the parkrun v25 Club
146Richard GRIFFITHS23:12VM35-3956.82 %M126PB stays at 00:18:5766Member of the parkrun 50 Club
147Dominic SHIELDS23:13VM50-5465.61 %M127San Domenico RCPB stays at 00:19:33467Member of the parkrun 250 Club
148Nas IQBAL23:18SM30-3455.79 %M128PB stays at 00:21:3847
149Peng WANG23:18SM25-2955.36 %M129New PB!2
150Enlli PARRI23:23SW20-2463.29 %F21New PB!39
151Haydn GRIFFITHS23:26VM60-6468.42 %M130Mynyddwyr De CymruPB stays at 00:23:006
152Matthew PITMAN23:28VM35-3957.74 %M131PB stays at 00:22:43113Member of the parkrun 100 Club
153Anna HUGHES23:29VW35-3963.88 %F22First Timer!1
154Nicole SAINI23:31SW20-2462.93 %F23PB stays at 00:23:2474Member of the parkrun 50 Club
155Brian JAMES23:32VM55-5966.43 %M132PB stays at 00:21:523
156Graham WEBSTER23:32VM60-6469.97 %M133Les Croupiers RCPB stays at 00:21:39113Member of the parkrun 100 Club
157Lee BURGESS23:34SM30-3455.02 %M134PB stays at 00:20:2071Member of the parkrun 50 Club
158Marcus TRAUTNER23:35VM50-5463.53 %M135PB stays at 00:23:1124
159Geoff JONES23:36VM55-5965.11 %M136PB stays at 00:21:15119Member of the parkrun 100 Club
160Hywel JAMES23:37VM55-5966.20 %M137PB stays at 00:23:0536
161Chris LYDON23:38VM35-3956.14 %M138First Timer!52Member of the parkrun 50 Club
162Chris WILLIAMSON23:38VM60-6470.31 %M139PB stays at 00:21:03203Member of the parkrun 100 Club
163Robert PARSONS23:40VM55-5966.06 %M140PB stays at 00:21:3380Member of the parkrun 50 Club
164Mark WALKER23:42VM50-5463.22 %M141PB stays at 00:21:27144Member of the parkrun 100 Club
165Siofra SEALY23:48SW25-2962.18 %F24New PB!13
166Selina SCOTFORD23:48SW30-3462.46 %F25New PB!82Member of the parkrun 50 Club
167Zoe JACOBS23:48SW20-2462.18 %F26Les Croupiers RCNew PB!98Member of the parkrun 50 Club
168Philip MC DONALD23:49SM25-2954.16 %M142PB stays at 00:19:2212
169Mick MCGEOCH23:49VM60-6469.14 %M143Les Croupiers RCPB stays at 00:17:47142Member of the parkrun 100 ClubMember of the parkrun v25 Club
170George WALKER23:49VM55-5965.64 %M144CDF RunnersNew PB!15
171Tim PETRIDES23:50VM50-5463.43 %M145Les Croupiers RCNew PB!62Member of the parkrun 50 Club
172Nick ARMSTEAD23:52VM35-3955.94 %M146CDF RunnersPB stays at 00:19:2370Member of the parkrun 50 Club
173Mike PRITCHARD23:53VM60-6468.95 %M147PB stays at 00:20:2892Member of the parkrun 50 Club
174Michael HAINES23:56VM45-4959.68 %M148PB stays at 00:21:12143Member of the parkrun 100 Club
175Abigail FRAYLING23:57SW20-2461.80 %F27BUAC Cool RunningsPB stays at 00:23:0733
176Ian BRADLEY23:58VM40-4458.28 %M149PB stays at 00:23:398
177Georgina DAVIES23:58SW20-2461.75 %F28PB stays at 00:23:1118
178Thomas HUNTER24:02SM18-1955.48 %M150New PB!44Member of the parkrun 10 Club
179Stephen NOYES24:04VM35-3955.12 %M151CSSC Sports & LeisurePB stays at 00:23:3910
180Hywel ROBERTS24:05VM35-3955.85 %M152New PB!21
181Steven PREDDY24:07VM45-4960.68 %M153Les Croupiers RCPB stays at 00:20:3499Member of the parkrun 50 Club
182Richard PUGSLEY24:07VM45-4958.81 %M154PB stays at 00:20:32139Member of the parkrun 100 Club
183Ken DYER24:09VM70-7473.02 %M155Lonely Goat RCFirst Timer!83Member of the parkrun 50 ClubMember of the parkrun v25 Club
184Steven BEDFORD24:10VM45-4960.07 %M156Les Croupiers RCPB stays at 00:22:0373Member of the parkrun 50 Club
185Trevor MITCHELL24:11VM55-5964.65 %M157PB stays at 00:23:24337Member of the parkrun 250 ClubMember of the parkrun v25 Club
186Kevin MULLINS24:13VM35-3955.13 %M158New PB!8
187Aled MORRIS24:17SM30-3453.74 %M159PB stays at 00:23:3850Member of the parkrun 50 Club
188Aled LEWIS24:18SM25-2953.09 %M160First Timer!1
189Hannah BIDWELL24:18JW15-1762.96 %F29PB stays at 00:22:3720Member of the parkrun 10 Club
190Carlton ROBINSON24:19SM20-2453.05 %M161PB stays at 00:22:323
191Ashleigh GILLANDERS24:19SW20-2460.86 %F30New PB!20
192Merrick LAYTON24:20VM45-4959.66 %M162PB stays at 00:22:41119Member of the parkrun 100 ClubMember of the parkrun v25 Club
193Andrea WEBSTER24:21VW60-6480.84 %F31Les Croupiers RCPB stays at 00:23:0188Member of the parkrun 50 Club
194Amelia Kate HARROLD24:21JW11-1465.57 %F32Cardiff ArchersNew PB!16Member of the parkrun 10 Club
195Tim GREEN24:22VM50-5462.04 %M163Les Croupiers RCPB stays at 00:20:35319Member of the parkrun 250 ClubMember of the parkrun v25 Club
196Wayne HUMPHREYS24:26VM40-4457.57 %M164PB stays at 00:22:0435
197Pat THOYTS24:27VM50-5460.33 %M165Tetbury Dolphins Running ClubFirst Timer!62Member of the parkrun 50 Club
198Kristian CURTIS24:28SM20-2452.72 %M166PB stays at 00:24:197
199Claudio VARGAS24:30VM45-4958.78 %M167PB stays at 00:21:28103Member of the parkrun 100 Club
200Gav HARGRAVE24:31VM35-3954.86 %M168PB stays at 00:22:35150Member of the parkrun 100 Club
201John PAYNE24:33VM50-5462.05 %M169Les Croupiers RCPB stays at 00:23:08263Member of the parkrun 250 ClubMember of the parkrun v25 Club
202Stephen ALECOCK24:34VM55-5964.72 %M170First Timer!1
203James LEVER24:35VM40-4457.22 %M171PB stays at 00:21:4218
204Alun EDWARDS24:37VM45-4958.50 %M172New PB!3
205Yiujun CHEUNG24:39SM25-2952.33 %M173PB stays at 00:24:3623
206Huw HOPKINS24:41SM20-2452.26 %M174PB stays at 00:21:24193Member of the parkrun 100 Club
207Stephen LEWIS24:41VM45-4959.28 %M175PB stays at 00:20:3620
208Brian Anthony JONES24:44VM45-4958.69 %M176Les Croupiers RCPB stays at 00:22:3596Member of the parkrun 50 Club
209Unknown
210Unmesh CHITNIS24:48VM35-3953.49 %M178PB stays at 00:23:33101Member of the parkrun 100 Club
211James LEE24:49SM25-2951.98 %M179PB stays at 00:23:5929
212Owen Glynne Thomas JONES24:50VM40-4456.24 %M180PB stays at 00:22:3437
213Will WINTERBOURNE24:51SM20-2451.91 %M181First Timer!1
214David MASON24:51VM35-3953.39 %M182PB stays at 00:21:5531
215Paul GOVIER24:52VM35-3953.69 %M183PB stays at 00:24:485
216John HYDE24:53VM60-6465.57 %M184PB stays at 00:22:31112Member of the parkrun 100 Club
217Paul J DAVIES24:53VM50-5459.75 %M185PB stays at 00:22:20165Member of the parkrun 100 Club
218Anna POWELL-CHANDLER24:54SW30-3459.71 %F33PB stays at 00:22:4759Member of the parkrun 50 Club
219Andrew BAKER24:55VM60-6466.09 %M186New PB!4
220Sankar Ganesh GANESAN24:56VM35-3953.54 %M187New PB!8
221Lee TREADWELL24:58SM25-2951.67 %M188Les Croupiers RCPB stays at 00:20:5857Member of the parkrun 50 Club
222Reece HODGES24:59SM20-2451.83 %M189BUAC Cool RunningsPB stays at 00:21:1217
223Rachael BROWN25:00SW25-2959.20 %F34PB stays at 00:24:359
224Oliver REDFERN25:01SM25-2951.57 %M190PB stays at 00:24:135
225Dewi JONES25:03VM50-5459.35 %M191PB stays at 00:24:3340
226Michael DRAGE25:04VM55-5961.30 %M192PB stays at 00:23:1674Member of the parkrun 50 Club
227Mark JONES25:05VM40-4455.22 %M193New PB!15
228Richard THEODOSSIADES25:07VM55-5961.71 %M194White Rock RunnersPB stays at 00:21:4756Member of the parkrun 50 Club
229Glen FRANCIS25:09VM45-4956.39 %M195Canton ChargersPB stays at 00:24:2174Member of the parkrun 50 Club
230Connie HOGG25:13SW20-2458.69 %F35First Timer!1
231Joanna CARSLAKE25:14VW45-4963.54 %F36PB stays at 00:24:2816
232Richard ROBERTS25:17VM45-4956.10 %M196PB stays at 00:22:2734
233Richard COOMBS25:18VM40-4455.20 %M197PB stays at 00:23:0959Member of the parkrun 50 Club
234Michael MORGAN25:19VM35-3952.07 %M198Penarth & Dinas RunnersPB stays at 00:19:2615
235Mike HARRISON25:20VM35-3952.04 %M199PB stays at 00:20:1522
236Sion FENWICK25:21SM30-3451.15 %M200New PB!5
237Shuffs SHUFFS25:21VM55-5960.62 %M201PB stays at 00:22:52254Member of the parkrun 250 Club
238Ben JAMES25:22VM35-3952.30 %M202PB stays at 00:23:3040
239Thomas HOLT25:22VM35-3953.42 %M203PB stays at 00:22:1761Member of the parkrun 50 Club
240Tom HARRISON25:23JM15-1753.97 %M204New PB!109Member of the parkrun 100 Club
241Chloe CRAIG25:23JW15-1759.55 %F37PB stays at 00:22:4869Member of the parkrun 50 Club
242Mark FALCONER25:24VM55-5962.07 %M205PB stays at 00:24:1253Member of the parkrun 50 Club
243Cam ELIZABETH25:25SW30-3458.49 %F38PB stays at 00:24:2528
244Dafydd JONES25:26VM45-4957.54 %M206PB stays at 00:23:5526
245Catriona GASKELL25:26SW25-2958.19 %F39First Timer!19
246David CORNELIUS25:27VM50-5457.96 %M207PB stays at 00:24:3467Member of the parkrun 50 Club
247Unknown
248Robert DAVIES25:29VM55-5961.35 %M209PB stays at 00:20:0926
249Garry ALDRIDGE25:31VM35-3952.71 %M210PB stays at 00:24:5285Member of the parkrun 50 Club
250William STEFFANCIN25:32VM55-5961.75 %M211New PB!26
251Unknown
252Martin EDWARDS25:33VM40-4453.42 %M213PB stays at 00:22:2458Member of the parkrun 50 Club
253James HANSEN25:36VM35-3952.93 %M214New PB!2
254Terry DOCHERTY25:37VM50-5459.01 %M215PB stays at 00:21:20213Member of the parkrun 100 Club
255Laura EVANS25:38SW30-3457.80 %F40Pegasus RC (Cardiff)PB stays at 00:22:5020
256Ross INGLE25:38SM25-2950.39 %M216PB stays at 00:23:3049
257Unknown
258David CARTER25:42SM20-2450.19 %M218PB stays at 00:21:176
259David HUCKLE25:42SM30-3450.78 %M219First Timer!3
260Cleo BONNET25:43VW35-3958.33 %F41PB stays at 00:22:3873Member of the parkrun 50 Club
261Toby HARRIS25:43VM45-4955.99 %M220New PB!2
262Nick JAMES25:44VM40-4453.43 %M221Social Outdoor Fitness Training (SOFT)PB stays at 00:24:592
263Siobhan BENNETT25:44VW55-5971.31 %F42New PB!10
264Keith REID25:45VM50-5458.71 %M222New PB!7
265Muditha ABEYSEKERA25:46SM30-3450.91 %M223PB stays at 00:24:4915
266Peter HEATH25:47VM35-3951.13 %M224Les Croupiers RCPB stays at 00:24:0049
267Joseph LEE25:49SM20-2449.97 %M225PB stays at 00:23:1699Member of the parkrun 50 Club
268Tomas ELIAS25:51JM11-1454.87 %M226PB stays at 00:23:4913Member of the parkrun 10 Club
269Luke SEIDEL-HAAS25:54SM25-2949.81 %M227PB stays at 00:25:476
270Unknown
271Andrew PENMAN25:58VM35-3951.41 %M229PB stays at 00:25:1072Member of the parkrun 50 Club
272Vincent OAK C25:59VM60-6461.71 %M230PB stays at 00:21:2641
273Ingrid PATTERSON26:00VW40-4459.17 %F43New PB!2
274James Vinod HEMROM26:01VM45-4955.35 %M231PB stays at 00:24:58120Member of the parkrun 100 Club
275Elora ANCELOT26:04SW25-2956.78 %F44PB stays at 00:24:0676Member of the parkrun 50 Club
276Sioned MASKELL26:07SW25-2956.67 %F45CDF RunnersPB stays at 00:25:1734
277Mark PRIDGEON26:08VM60-6461.35 %M232PB stays at 00:24:0940
278Rachel BISHOP26:09SW25-2956.60 %F46PB stays at 00:24:317
279Tim PICKLES26:10SM30-3449.68 %M233Les Croupiers RCPB stays at 00:25:0957Member of the parkrun 50 Club
280Steven UNDERHILL26:11VM60-6462.32 %M234New PB!104Member of the parkrun 100 Club
281James EDGAR26:12VM55-5959.67 %M235New Forest RunnersNew PB!33
282Charles KATTAKAYAM26:13VM45-4955.37 %M236First Timer!181Member of the parkrun 100 Club
283Nicholas STREATFIELD26:13SM25-2949.21 %M237PB stays at 00:25:364
284Bleddyn WOODWARD26:15SM30-3449.71 %M238PB stays at 00:20:1429
285Jacky HE26:16SM30-3449.37 %M239PB stays at 00:23:1017
286David KIRBY26:18SM20-2449.05 %M240New PB!3
287Svenja HENNIG26:18SW20-2456.27 %F47PB stays at 00:24:1219
288Iwan JAMES26:19JM15-1751.30 %M241New PB!2
289Beno RAJ26:20SM30-3449.81 %M242New PB!7
290Matthew MORRIS26:20VM40-4453.04 %M243PB stays at 00:21:4450Member of the parkrun 50 Club
291Dave JAMES26:21VM45-4954.65 %M244PB stays at 00:25:32252Member of the parkrun 250 Club
292Tim DAWE26:22VM45-4955.06 %M245PB stays at 00:20:52252Member of the parkrun 250 Club
293Catherine DAVIES26:23VW50-5464.31 %F48PB stays at 00:25:4848
294Nigel OSWELL26:25VM65-6964.10 %M246PB stays at 00:22:48131Member of the parkrun 100 Club
295Huw GRIFFITHS26:27VM55-5959.61 %M247Newbury RunnersPB stays at 00:22:27175Member of the parkrun 100 Club
296Sarah BURDETT26:27SW30-3456.08 %F49Les Croupiers RCPB stays at 00:23:1691Member of the parkrun 50 Club
297Unknown
298Unknown
299Nigel STOKES26:30VM50-5456.54 %M250PB stays at 00:25:5662Member of the parkrun 50 Club
300Alice ROTHWELL26:30VW35-3956.79 %F50PB stays at 00:25:438
301Unknown
302Nick WILLIAMS26:31VM55-5958.45 %M252South Wales PolicePB stays at 00:19:52313Member of the parkrun 250 Club
303Darren BELLAMY26:32VM45-4954.27 %M253PB stays at 00:24:3452Member of the parkrun 50 Club
304Michael KENEFICK26:33SM30-3448.96 %M254PB stays at 00:21:5553Member of the parkrun 50 Club
305Sam KRAYEM-WOOD26:34SM20-2448.56 %M255First Timer!4
306Michelle SCURRELL26:35VW45-4960.94 %F51Tri EnergyFirst Timer!124Member of the parkrun 100 Club
307Ollie CASTELL26:36VM35-3950.56 %M256PB stays at 00:23:3265Member of the parkrun 50 Club
308Andrew OWEN26:36VM55-5958.27 %M257PB stays at 00:25:356
309Keith LEREGO26:37VM40-4452.85 %M258New PB!12
310Robert FREW26:38VM55-5958.20 %M259New PB!33
311Edward TIMSON26:38VM55-5958.70 %M260PB stays at 00:23:2174Member of the parkrun 50 Club
312Laura MEILAK JONES26:42VW35-3956.93 %F52New PB!6
313Carys REARDON-SMITH26:43JW11-1458.83 %F53New PB!36Member of the parkrun 10 Club
314Bleddyn DAVIES26:44SM25-2948.32 %M261First Timer!2
315Elin REARDON-SMITH26:44VW45-4959.98 %F54PB stays at 00:23:57122Member of the parkrun 100 Club
316Heather CRAIG26:45VW55-5967.66 %F55PB stays at 00:26:2955Member of the parkrun 50 Club
317Charlie HEAD26:47SM30-3448.54 %M262PB stays at 00:22:0026
318Claire HODGES26:48SW25-2955.22 %F56PB stays at 00:26:42155Member of the parkrun 100 Club
319Julie MORGAN26:50VW50-5463.23 %F57PB stays at 00:26:0668Member of the parkrun 50 Club
320Emyr THOMAS26:52VM60-6460.73 %M263PB stays at 00:24:16220Member of the parkrun 100 Club
321Unknown
322Daniel WILLIAMS26:56SM25-2947.90 %M265PB stays at 00:24:2613
323Steven MONKS26:57VM50-5454.73 %M266PB stays at 00:25:2078Member of the parkrun 50 Club
324Richard SALTMARSH26:58VM50-5455.56 %M267Les Croupiers RCNew PB!3
325Ralph DAVEY27:00VM70-7469.01 %M268Les Croupiers RCPB stays at 00:23:14162Member of the parkrun 100 Club
326Tom BETTS27:01VM35-3950.15 %M269PB stays at 00:22:4542
327Chris CONGDON27:03SM20-2447.69 %M270New PB!5
328Matthew GATEHOUSE27:03VM45-4952.43 %M271PB stays at 00:24:5454Member of the parkrun 50 Club
329Dafydd SALAMAN27:04SM30-3447.91 %M272New PB!9
330Rachel RAYMENT27:05VW50-5462.65 %F58PB stays at 00:25:1412
331Steve DART27:06VM65-6961.87 %M273PB stays at 00:24:4980Member of the parkrun 50 Club
332Hilary FOSTER27:07VW55-5967.67 %F59CSSC Sports & LeisurePB stays at 00:25:36217Member of the parkrun 100 Club
333Elin EDWARDS27:07VW35-3955.13 %F60PB stays at 00:26:1420
334Peter HORMAN27:09SM30-3447.64 %M274ParkrunnerPBNew PB!63Member of the parkrun 50 Club
335Rachel MORGAN27:11VW50-5462.42 %F61PB stays at 00:24:4914
336Jack MUNDY27:14JM11-1454.59 %M275PB stays at 00:26:1123Member of the parkrun 10 Club
337Nigel THOMAS27:16VM50-5454.52 %M276PB stays at 00:23:2225
338Ashley HALTON27:16VM50-5455.87 %M277PB stays at 00:25:3449
339Anthony WILLIAMS27:17SM30-3447.65 %M278PB stays at 00:22:178
340Alistair RUST27:18VM45-4953.60 %M279New PB!87Member of the parkrun 50 Club
341Unknown
342Donna HAMER27:19VW45-4958.15 %F62Les Croupiers RCPB stays at 00:22:1935
343Unknown
344Simon BOURNE27:21VM45-4951.86 %M282New PB!8
345Richard SIBBICK27:22VM40-4450.61 %M283PB stays at 00:25:3573Member of the parkrun 50 Club
346Li HAWKSWORTH27:23VW55-5966.10 %F63PB stays at 00:26:31288Member of the parkrun 250 Club
347Judit Katalin CSONTOS27:23SW25-2954.05 %F64PB stays at 00:24:15115Member of the parkrun 100 Club
348Nest Gwenllian ROBERTS27:24VW35-3954.56 %F65New PB!18
349Philippa ATHA27:24VW45-4960.46 %F66New PB!16
350Fiona PHILLIPS27:25VW50-5461.16 %F67PB stays at 00:26:52151Member of the parkrun 100 Club
351Gareth LLEWELLYN27:26VM35-3949.03 %M284PB stays at 00:25:575
352John FRAYNE27:27VM65-6961.69 %M285PB stays at 00:23:20222Member of the parkrun 100 Club
353Ieuan BENNETT27:28VM55-5955.95 %M286PB stays at 00:23:1569Member of the parkrun 50 Club
354Fiona WATERHOUSE27:29VW40-4455.97 %F68Horsforth HarriersFirst Timer!161Member of the parkrun 100 Club
355Jack HARRIES27:29JM1061.92 %M287PB stays at 00:26:5743Member of the parkrun 10 Club
356Kathryn HARRIES27:30VW35-3955.27 %F69PB stays at 00:26:5771Member of the parkrun 50 Club
357Rich PANNIERS27:31SM25-2946.88 %M288First Timer!1
358Eva MARTIN27:31JW1068.20 %F70Cardiff AACNew PB!11Member of the parkrun 10 Club
359Andrew MARTIN27:32VM45-4952.72 %M289PB stays at 00:21:1563Member of the parkrun 50 ClubMember of the parkrun v25 Club
360Gareth ROYAL27:33VM35-3949.18 %M290PB stays at 00:26:485
361Claire BOND27:34VW45-4958.16 %F71New PB!2
362Mike BUSH27:34VM50-5453.93 %M291PB stays at 00:23:22185Member of the parkrun 100 Club
363Taff JONES27:37VW50-5463.85 %F72Lonely Goat RCPB stays at 00:26:1013
364Owen MUNDY27:37VM35-3949.06 %M292New PB!23
365Scarlett TOMES27:37SW20-2453.59 %F73PB stays at 00:27:1316
366Jon DOOLAN27:38VM55-5956.57 %M293PB stays at 00:23:2034
367Rachel HIGGINSON27:39VW35-3954.73 %F74Les Croupiers RCPB stays at 00:24:5145
368Simon MASON27:39VM45-4952.92 %M294New PB!2
369Lolly EVANS27:40VW45-4959.16 %F75Les Croupiers RCPB stays at 00:22:5987Member of the parkrun 50 Club
370Victoria MARQUISS27:40SW20-2453.49 %F76First Timer!2
371David GRIFFIN27:41SM25-2946.60 %M295PB stays at 00:23:3820
372Eilir PIERCE27:43VM40-4449.61 %M296First Timer!1
373John HUGGINS27:45VM60-6458.32 %M297PB stays at 00:25:5328
374D BEVAN27:45SM25-2946.55 %M298New PB!9
375Eulee SEOW27:46SW30-3453.54 %F77Les Croupiers RCPB stays at 00:25:5878Member of the parkrun 50 Club
376Ella LONNEN27:47SW25-2953.27 %F78PB stays at 00:26:4223
377Miriam BENNETT27:47SW20-2453.27 %F79PB stays at 00:24:4421
378Richard ATHA27:49VM45-4952.61 %M299New PB!17
379Jan BOYCE27:56VW40-4455.91 %F80New PB!9
380Glenda GEORGE27:57VW45-4959.27 %F81PB stays at 00:26:4641
381William WILBRAHAM27:57JM15-1748.30 %M300New PB!11Member of the parkrun 10 Club
382Stefan LIASSIDES27:58VM35-3947.74 %M301PB stays at 00:25:593
383Michael POWELL27:59VM35-3947.11 %M302PB stays at 00:26:3217
384Gary OCONNELL28:01VM55-5954.85 %M303PB stays at 00:26:243
385Aled Powys WILLIAMS28:02SM30-3446.79 %M304PB stays at 00:22:2134
386Rhys HOSKINS28:03SM30-3446.52 %M305PB stays at 00:20:1545
387John FONSECA28:05VM55-5955.67 %M306PB stays at 00:25:2182Member of the parkrun 50 Club
388Jack ELDERFIELD28:08SM25-2945.85 %M307PB stays at 00:25:1369Member of the parkrun 50 Club
389Ian PROTHEROE28:09VM45-4951.57 %M308CDF RunnersPB stays at 00:21:5171Member of the parkrun 50 ClubMember of the parkrun v25 Club
390Louise JAMES28:11VW50-5459.49 %F82New PB!7
391Zoe TRIMBY28:11JW1060.56 %F83New PB!3
392Stuart TRIMBY28:12VM40-4449.11 %M309PB stays at 00:22:2659Member of the parkrun 50 Club
393Mandy MARTIN28:14VW45-4956.26 %F84PB stays at 00:26:1828Member of the parkrun v25 Club
394Hannah WELSH28:14SW30-3452.66 %F85PB stays at 00:27:2314
395Alan HOPE28:15VM65-6959.35 %M310PB stays at 00:25:1755Member of the parkrun 50 Club
396Unknown
397Katie REDMAN28:18SW30-3452.36 %F86PB stays at 00:26:0225
398Mairi SEN28:20VW50-5460.65 %F87Pontyclun Road RunnersNew PB!11
399Andrew NORTON28:21VM50-5452.44 %M312PB stays at 00:19:50145Member of the parkrun 100 Club
400Emily MANSFIELD28:22SW20-2452.17 %F88New PB!6
401Jessica HAYES-GILL28:23SW30-3452.38 %F89PB stays at 00:25:5916
402Tim WARD28:24VM60-6456.98 %M313PB stays at 00:27:3279Member of the parkrun 50 Club
403Kevin FAHEY28:26SM30-3445.60 %M314PB stays at 00:28:033
404Unknown
405Lisa DAVIES28:29VW50-5460.33 %F90PB stays at 00:26:0587Member of the parkrun 50 Club
406Sian DRINKWATER28:29VW45-4958.16 %F91PB stays at 00:27:4414
407Jen COLEMAN28:31VW40-4455.17 %F92Les Croupiers RCPB stays at 00:18:46148Member of the parkrun 100 Club
408Graham ALDRIDGE28:33VM70-7461.76 %M316PB stays at 00:27:4935
409Andy PHILLIPS28:33VM50-5451.66 %M317New PB!2
410Clare BRUCE28:34VW45-4955.60 %F93PB stays at 00:26:3727
411Clare ALDRIDGE28:35VW35-3952.94 %F94PB stays at 00:26:30100Member of the parkrun 100 Club
412Peter HODGES28:36VM55-5954.66 %M318PB stays at 00:25:20225Member of the parkrun 100 ClubMember of the parkrun v25 Club
413Sarah BIDWELL28:38VW50-5459.25 %F95PB stays at 00:27:179
414Catherine RODERICK28:39VW35-3952.36 %F96New PB!47
415Mark WATERS28:40VM50-5451.45 %M319PB stays at 00:27:2941
416Mark HAMER28:42VM50-5451.39 %M320PB stays at 00:23:0821
417Endaf WILLIAMS28:43VM45-4949.39 %M321PB stays at 00:25:3210
418Zixi JIN28:44SW25-2951.51 %F97PB stays at 00:28:2312
419Matthew GEORGE28:45VM45-4950.09 %M322New PB!3
420Joanne EVANS28:46VW40-4453.88 %F98New PB!3
421Jozie POSTLES28:47SW25-2951.42 %F99Les Croupiers RCPB stays at 00:25:4616
422Catrin TOMOS28:48SW25-2951.39 %F100PB stays at 00:27:4732
423Elin LANG28:49VW40-4453.09 %F101CSSC Sports & LeisurePB stays at 00:28:302
424Karen SEARY28:50VW55-5962.77 %F102PB stays at 00:26:13108Member of the parkrun 100 Club
425Tony SETCHFIELD28:51VM55-5953.73 %M323PB stays at 00:24:30134Member of the parkrun 100 Club
426Gillian MURPHY28:51VW65-6971.35 %F103Les Croupiers RCPB stays at 00:25:42124Member of the parkrun 100 Club
427Kellinu PORTELLI28:52VM50-5452.77 %M324Les Croupiers RCPB stays at 00:19:4047
428Suzy LLOYD28:52VW40-4453.70 %F104Varsity Vandals Running ClubPB stays at 00:27:1691Member of the parkrun 50 Club
429Roisin GALLOP28:53SW25-2951.24 %F105New PB!3
430Elizabeth AIKMAN28:55VW35-3951.87 %F106New PB!5
431Gillian KNIGHT28:56VW45-4955.99 %F107PB stays at 00:21:4684Member of the parkrun 50 Club
432Unknown
433Mark DAVIDSON29:02VM55-5953.85 %M326New PB!28
434Sioned WILLIAMS29:02VW45-4956.37 %F108PB stays at 00:27:2633
435Emily BIRD29:05SW20-2450.89 %F109PB stays at 00:28:2720
436Chris BRYANT29:06SM30-3444.85 %M327PB stays at 00:28:097
437Cathy BIRD29:07VW55-5963.02 %F110PB stays at 00:25:3116
438Jason CREWS29:07SM30-3444.82 %M328PB stays at 00:22:3272Member of the parkrun 50 Club
439Tony MILLIN29:08VM50-5451.89 %M329PB stays at 00:23:00328Member of the parkrun 250 Club
440Adam COMPTON29:09SM25-2944.25 %M330First Timer!1
441Unknown
442Unknown
443John GANDER29:14SM30-3444.64 %M333First Timer!2
444Susie WILLIAMS29:16VW40-4452.96 %F111PB stays at 00:27:5531
445Emily HARRIS29:17SW30-3450.88 %F112PB stays at 00:27:1929
446Diane MORRISON29:18SW20-2450.51 %F113PB stays at 00:27:5216
447Tess LEWIS29:19SW25-2950.48 %F114First Timer!1
448Daisy HUBALL29:19SW30-3450.71 %F115PB stays at 00:27:3759Member of the parkrun 50 Club
449Susan HOBBS29:20VW50-5458.58 %F116CSSC Sports & LeisurePB stays at 00:26:53246Member of the parkrun 100 Club
450Alison DACEY29:24VW50-5459.98 %F117Women Running PenarthPB stays at 00:27:30113Member of the parkrun 100 Club
451Steve LEAT29:25VM45-4949.35 %M334PB stays at 00:28:3617
452Judi JONES29:26VW50-5459.91 %F118PB stays at 00:27:3637
453Damian MUIR29:27SM30-3444.54 %M335PB stays at 00:24:54112Member of the parkrun 100 Club
454Zoe WELSH29:28VW35-3950.74 %F119PB stays at 00:28:3521
455Christine UNDERHILL29:31VW60-6464.82 %F120PB stays at 00:27:46287Member of the parkrun 250 Club
456Chirag PATEL29:31VM45-4949.18 %M336Les Croupiers RCPB stays at 00:27:2230
457Firouz MAL29:33VM60-6455.22 %M337Les Croupiers RCPB stays at 00:22:25118Member of the parkrun 100 ClubMember of the parkrun v25 Club
458Jennifer ALTRIA29:34SW25-2950.06 %F121PB stays at 00:29:3165Member of the parkrun 50 Club
459Andrew BARTLEY29:36VM40-4446.11 %M338UK Mudd KingsPB stays at 00:24:1436
460Unknown
461Kardn WHILES29:37VW45-4955.94 %F122New PB!3
462Mark HERBERT29:38VM35-3945.05 %M340Les Croupiers RCPB stays at 00:24:56120Member of the parkrun 100 Club
463Kate LLEWELLYN29:38VW40-4452.70 %F123New PB!28
464Toby DOVEY29:39SM30-3443.73 %M341PB stays at 00:18:374
465Rhiannon BILL29:39VW50-5456.55 %F124PB stays at 00:27:2170Member of the parkrun 50 ClubMember of the parkrun v25 Club
466Ella DAVIES29:41JW11-1454.86 %F125First Timer!1
467Daniel DAVIES29:43VM40-4447.00 %M342PB stays at 00:22:076
468Unknown
469Rod PERONS29:46VM55-5952.07 %M344Les Croupiers RCPB stays at 00:21:01226Member of the parkrun 100 Club
470Ian Mcgregor RUSSELL29:48VM35-3944.80 %M345PB stays at 00:25:0433
471Steve KILLICK29:49VM60-6454.28 %M346PB stays at 00:26:1980Member of the parkrun 50 Club
472Sally DAVIES29:50VW45-4954.86 %F126New PB!65Member of the parkrun 50 Club
473John DAVIES29:51VM50-5450.20 %M347New PB!4
474Robert HULONCE29:54VM45-4948.94 %M348PB stays at 00:28:3759Member of the parkrun 50 Club
475Mahendra KAKOLLU29:55VM45-4948.13 %M349First Timer!1
476Unknown
477Max BIGNELL30:01JM11-1447.25 %M351New PB!13Member of the parkrun 10 Club
478Rachel SLEAT30:02VW40-4450.94 %F127First Timer!1
479Dave ELIAS30:05VM50-5449.03 %M352PB stays at 00:23:1921
480Unknown
481David WAKE30:08VM35-3943.75 %M354PB stays at 00:26:4529
482Megan DAVID30:09SW25-2949.09 %F128PB stays at 00:28:4430
483Andrew WESTWELL30:12VM50-5448.84 %M355PB stays at 00:30:0724
484Alison LING30:13VW35-3950.08 %F129Muddy Race TeamPB stays at 00:26:0784Member of the parkrun 50 Club
485Dan PETERSON30:14VM50-5449.17 %M356PB stays at 00:23:32219Member of the parkrun 100 ClubMember of the parkrun v25 Club
486Andrew EDWARDS30:15SM30-3443.36 %M357PB stays at 00:29:153
487Salli DIXON30:16SW25-2948.90 %F130CDF RunnersPB stays at 00:28:3610
488Faye ROYAL30:16VW35-3949.56 %F131PB stays at 00:29:495
489Mark CANHAM30:22VM55-5951.04 %M358PB stays at 00:24:0316
490Sarah MASON30:24SW25-2948.68 %F132PB stays at 00:26:30106Member of the parkrun 100 Club
491Terence WILSON30:25VM70-7458.68 %M359PB stays at 00:26:47175Member of the parkrun 100 Club
492Christine NUTE30:25VW35-3949.97 %F133PB stays at 00:28:3238
493Lorna EDWARDS30:27VW55-5960.26 %F134PB stays at 00:26:12295Member of the parkrun 250 ClubMember of the parkrun v25 Club
494Lindsay DOVEY30:29VW40-4450.19 %F135First Timer!1
495Kelsie PATTON30:29SW30-3448.61 %F136PB stays at 00:29:243
496Jane STRATFORD30:30VW50-5456.34 %F137CSSC Sports & LeisureNew PB!120Member of the parkrun 100 ClubMember of the parkrun v25 Club
497Liz GOLDBERG30:31VW50-5456.31 %F138PB stays at 00:29:5211
498Guto GWILYM30:31SM25-2942.27 %M360PB stays at 00:27:0611
499Carley SAUNDERS30:32VW35-3949.78 %F139PB stays at 00:26:1419
500Martin ATKINSON30:34VM45-4947.49 %M361New PB!7
501Lara JONES30:37VW35-3949.16 %F140PB stays at 00:28:2540
502Ryan AGNEW30:38SM18-1943.04 %M362New PB!4
503Catrin PARRI30:38VW50-5456.86 %F141PB stays at 00:28:1613
504Lisa BUDD30:43SW30-3448.40 %F142First Timer!1
505Tony FRY30:44VM45-4946.85 %M363PB stays at 00:25:2790Member of the parkrun 50 Club
506David LEWIS30:44VM50-5448.37 %M364New PB!2
507Gwen MATTHEWS30:45SW25-2948.13 %F143PB stays at 00:28:545
508Sharon FRAYLING30:46VW45-4953.20 %F144New PB!2
509David MCDONALD30:57VM50-5447.66 %M365Les Croupiers RCPB stays at 00:22:22195Member of the parkrun 100 ClubMember of the parkrun v25 Club
510Hollie TRUDGEON30:59SW20-2447.77 %F145New PB!2
511James TRIGG31:02VM40-4445.01 %M366PB stays at 00:26:0397Member of the parkrun 50 Club
512Stacey HUNTER31:02SW30-3447.80 %F146PB stays at 00:30:2012
513Christine EVANS31:03VW65-6967.31 %F147PB stays at 00:28:22193Member of the parkrun 100 Club
514Chloe HOLST31:07JW15-1749.81 %F148PB stays at 00:28:4657Member of the parkrun 50 Club
515Katie GORDON31:14VW35-3948.03 %F149New PB!7
516Unknown
517Jan WILLIAMS31:19VW70-7472.27 %F150PB stays at 00:29:3625
518David WITHNALL31:20VM40-4443.88 %M368New PB!2
519Elizabeth PAYNE31:21VW35-3948.01 %F151PB stays at 00:27:5435
520Deborah WEBB31:24VW35-3948.20 %F152PB stays at 00:30:3597Member of the parkrun 50 Club
521Samantha BONHAM31:24SW25-2947.13 %F153First Timer!1
522Abbie LAWRENCE31:25SW20-2447.11 %F154PB stays at 00:28:308
523Unknown
524Huw EVANS31:27VM45-4946.53 %M370PB stays at 00:22:0814
525Rhys FREEMAN31:27SM25-2941.02 %M371New PB!2
526Unknown
527Liang GUO31:29VM35-3942.14 %M373PB stays at 00:29:4132
528Stephen MOSS31:30VM50-5448.36 %M374PB stays at 00:26:306
529Kearn FOSTER31:31SM20-2440.93 %M375PB stays at 00:31:084
530Unknown
531Daniel NELMES31:33VM35-3942.31 %M377PB stays at 00:25:0531
532Dennis BOYETT31:34VM70-7455.86 %M378PB stays at 00:27:19112Member of the parkrun 100 Club
533Helen ROBERTSON31:42VW45-4951.63 %F155Les Croupiers RCPB stays at 00:26:3874Member of the parkrun 50 Club
534Nicola BRESNER31:43VW35-3947.29 %F156This Mum RunsFirst Timer!2
535Leigh WEBBER31:44VW35-3947.27 %F157New PB!3
536Claire BELL31:45VW55-5956.27 %F158Les Croupiers RCPB stays at 00:25:40110Member of the parkrun 100 Club
537Emma JONES31:45VW35-3947.09 %F159PB stays at 00:31:0116
538Christopher STACEY31:46VM60-6450.94 %M379Les Croupiers RCPB stays at 00:27:5995Member of the parkrun 50 Club
539Emrhys PICKUP31:46SM25-2940.61 %M380PB stays at 00:26:237
540Peter SMEETH31:47VM40-4442.95 %M381PB stays at 00:27:2430
541Elinor HUGHES31:48SW20-2446.54 %F160First Timer!1
542Sofia GOLDONI31:48SW30-3446.65 %F161PB stays at 00:29:1035
543Unknown
544Joe HESLOP31:49SM20-2440.54 %M383PB stays at 00:29:2010
545Jack CHANDLER31:50JM15-1743.72 %M384PB stays at 00:30:167
546Helen HUBBACK31:50VW45-4950.89 %F162Les Croupiers RCPB stays at 00:29:34108Member of the parkrun 100 Club
547Huw LLEWELLYN31:51VM50-5446.68 %M385PB stays at 00:29:5182Member of the parkrun 50 Club
548Malcolm FOSTER31:51VM55-5949.92 %M386PB stays at 00:30:3613
549Alice RANDONE31:53VW40-4447.99 %F163PB stays at 00:28:0646
550Rachel BOTT31:59SW20-2446.27 %F164First Timer!1
551Katie CHANDLER32:00VW35-3946.88 %F165PB stays at 00:28:3139
552Gareth JOHNSON32:03SM25-2940.25 %M387PB stays at 00:31:4911
553Lowri EVANS32:08SW30-3446.11 %F166PB stays at 00:32:085
554Tony HICKS32:08VM55-5948.24 %M388PB stays at 00:26:14141Member of the parkrun 100 Club
555Keith JAMES32:11VM70-7457.90 %M389PB stays at 00:26:5091Member of the parkrun 50 Club
556Huw THOMAS32:12VM50-5446.53 %M390PB stays at 00:28:2410
557Anwen ROBERTS32:12SW30-3446.27 %F167PB stays at 00:28:0441
558Mererid BOWLEY32:13VW45-4951.42 %F168New PB!4
559Gary BOYCE32:14VM45-4945.04 %M391PB stays at 00:29:255
560Kam HAYER32:15VW50-5452.61 %F169Les Croupiers RCPB stays at 00:31:2620
561Graham CARRICK32:15VM50-5447.24 %M392Pegasus RC (Cardiff)PB stays at 00:23:28179Member of the parkrun 100 ClubMember of the parkrun v25 Club
562Alison PRITCHARD32:16SW30-3445.92 %F170Pegasus RC (Cardiff)PB stays at 00:28:5723
563Keith AGNEW32:18VM50-5446.39 %M393New PB!5
564Joseph ANDERSON32:19VM35-3941.62 %M394PB stays at 00:25:22115Member of the parkrun 100 Club
565Jessica BASSETT32:25JW15-1746.63 %F171New PB!4
566Philip BOLTON32:27VM65-6953.16 %M395PB stays at 00:30:1526
567Joanna HILTON32:30VW45-4949.85 %F172PB stays at 00:31:4043
568Louise HARRIS32:31VW40-4448.39 %F173New PB!11
569Sarah PERONS32:33VW55-5957.14 %F174Les Croupiers RCPB stays at 00:25:3494Member of the parkrun 50 Club
570Sandra REED32:35VW60-6460.41 %F175Stokes Striders Recreational Running GroupFirst Timer!172Member of the parkrun 100 ClubMember of the parkrun v25 Club
571Aileen HONERLOH32:35SW20-2445.42 %F176New PB!6
572Carys JENKINS32:43VW40-4447.73 %F177PB stays at 00:28:4449
573Unknown
574Cheryl ANDERSON32:45SW30-3445.29 %F178PB stays at 00:23:38139Member of the parkrun 100 Club
575Hannah WILLIAMS32:45SW25-2945.19 %F179PB stays at 00:28:454
576Geoffrey WILLIAMS32:46VM60-6450.71 %M397PB stays at 00:30:0918
577Michelle GUNN32:48SW30-3445.22 %F180PB stays at 00:32:2311
578Ian SANDERS32:49VM60-6448.86 %M398PB stays at 00:28:0930Member of the parkrun v25 Club
579Sarah HARROLD32:52VW45-4949.29 %F181PB stays at 00:27:3165Member of the parkrun 50 Club
580Julie PEMBERTON32:52VW50-5452.28 %F182Women Running PenarthPB stays at 00:27:1668Member of the parkrun 50 Club
581Kate CONGDON32:53VW50-5451.60 %F183New PB!4
582Unknown
583Hayley PEARD32:56VW35-3945.39 %F184PB stays at 00:30:1324
584Justin GOUGH32:59VM50-5446.18 %M400PB stays at 00:25:3131
585Vicky HAROLD33:01SW30-3444.93 %F185New PB!4
586Unknown
587Luke BAKER33:03VM40-4442.26 %M402PB stays at 00:28:5314
588Chris SEYMOUR33:05SM25-2939.04 %M403PB stays at 00:23:2450Member of the parkrun 50 Club
589Maddy HAWKES33:08SW25-2944.67 %F186PB stays at 00:32:0415
590Wenna LU33:09SW30-3444.95 %F187PB stays at 00:25:5428
591Lynsey BOWLEY33:10VW40-4447.09 %F188New PB!12
592Andrew HOLGATE33:11VM50-5444.45 %M404PB stays at 00:28:5539
593Debbie BURTON33:15VW55-5953.73 %F189PB stays at 00:29:3393Member of the parkrun 50 Club
594Steve BURTON33:16VM50-5445.79 %M405PB stays at 00:25:09107Member of the parkrun 100 Club
595Lee ROBINS33:17VM45-4943.97 %M406CSSC Sports & LeisurePB stays at 00:31:14187Member of the parkrun 100 Club
596Emma LLEWELLYN33:17SW30-3444.57 %F190PB stays at 00:30:4438
597Paul DAVIES33:18VM35-3940.09 %M407PB stays at 00:29:4966Member of the parkrun 50 Club
598Paul SANDERS33:20VM40-4441.25 %M408PB stays at 00:28:50111Member of the parkrun 100 Club
599Dafydd LLOYD33:22VM45-4943.86 %M409New PB!3
600Joanne BROWNE33:26VW35-3944.87 %F191First Timer!1
601Darren BROWNE33:27VM45-4942.70 %M410First Timer!1
602Glyn PHILLIPS33:28VM45-4943.38 %M411New PB!12
603Raymond JAMES33:28VM55-5947.11 %M412Port Talbot Harriers & ACPB stays at 00:23:3564Member of the parkrun 50 Club
604Lowri DAVIES33:29VW35-3945.20 %F192PB stays at 00:27:1495Member of the parkrun 50 Club
605Angela BUSH33:31VW50-5450.02 %F193PB stays at 00:29:5970Member of the parkrun 50 Club
606Philip BISHOP33:32VM55-5946.22 %M413PB stays at 00:29:5131
607Unknown
608Unknown
609Dominique WEDGE33:34VW35-3945.28 %F194PB stays at 00:27:5574Member of the parkrun 50 Club
610Unknown
611Carol TOOZER33:36VW45-4947.27 %F195PB stays at 00:32:263
612Joanne DAVIES33:39VW55-5955.27 %F196New PB!5
613Joanna MARRIOTT33:41SW30-3443.94 %F197PB stays at 00:32:126
614Roberta MORRISON33:44VW55-5953.66 %F198New PB!58Member of the parkrun 50 Club
615James SMITH33:46VM35-3939.04 %M417CDF RunnersPB stays at 00:27:2940
616Graham HOGG33:49VM60-6448.25 %M418PB stays at 00:33:3218
617Sophie CONGDON33:51SW20-2443.72 %F199PB stays at 00:32:339
618Steve SWABEY33:52VM50-5444.64 %M419PB stays at 00:29:3116
619Alice O'DUFFY33:53SW18-1944.17 %F200New PB!6
620Emma STONE33:54VW40-4446.07 %F201New PB!3
621Pam WIENER33:55VW40-4446.39 %F202PB stays at 00:33:352
622Sarah GREEN33:55VW35-3944.62 %F203PB stays at 00:33:382
623Gab CALCATERRA33:56SW25-2943.61 %F204First Timer!1
624Brian GREGORY33:59VM70-7451.89 %M420New PB!8
625Fiona EVANS34:04VW55-5952.45 %F205PB stays at 00:30:3520
626Oliver FRANCIS34:12VM35-3938.55 %M421PB stays at 00:30:022
627Heather FRANCIS34:13SW30-3443.25 %F206First Timer!1
628Begw EDWARDS34:13JW11-1447.59 %F207First Timer!1
629Amanda TUCKER34:17VW55-5952.11 %F208PB stays at 00:33:452
630Cerys GENTLE34:18VW35-3943.88 %F209PB stays at 00:33:472
631Elizabeth Louise HODGES34:19VW55-5952.74 %F210PB stays at 00:31:45227Member of the parkrun 100 ClubMember of the parkrun v25 Club
632Unknown
633Sankaranarayanan PONNUSAMY34:20VM40-4440.34 %M423PB stays at 00:30:1058Member of the parkrun 50 Club
634Unknown
635Phillipa KNOWLES34:22VW60-6455.67 %F211PB stays at 00:33:4133
636Hannah FURNISH34:23SW30-3443.04 %F212New PB!2
637Emma PORTER34:24VW40-4445.74 %F213First Timer!1
638Alice PORTER34:24JW11-1446.41 %F214First Timer!1
639Vicky RODERICK34:26VW40-4445.35 %F215New PB!2
640Alex ELLIOTT34:28SW25-2942.94 %F216First Timer!3
641Mal ROWSON34:31VW65-6963.45 %F217Les Croupiers RCPB stays at 00:27:1883Member of the parkrun 50 Club
642Bozo LUGONJA34:32SM30-3437.64 %M425New PB!13
643Gwenno HENLEY34:33SW25-2942.84 %F218First Timer!22
644Lew 34:34SM30-3437.51 %M426PB stays at 00:17:53214Member of the parkrun 100 ClubMember of the parkrun v25 Club
645Maria-Luisa MEREDITH34:35VW50-5449.06 %F219PB stays at 00:29:5749
646Ben GILBERT34:36VM35-3938.87 %M427First Timer!1
647Oliver GILBERT34:36JM1049.18 %M428First Timer!1
648Roxie BOALER34:37SW30-3442.95 %F220PB stays at 00:33:172
649Martin BOALER34:38SM30-3437.44 %M429PB stays at 00:33:222
650Sarah SPENCE34:42VW40-4445.34 %F221PB stays at 00:28:5169Member of the parkrun 50 Club
651Emma WATERS34:43VW50-5448.30 %F222PB stays at 00:32:3138
652Thomas OBORSKI34:46SM25-2937.15 %M430PB stays at 00:33:023
653Anna MARCH34:48VW40-4444.88 %F223New PB!2
654Hannah HETHERINGTON34:49VW35-3943.66 %F224First Timer!1
655Alex GEORGIADES34:56SM25-2936.98 %M431PB stays at 00:24:4821
656Sonia DE SAXE35:00VW50-5449.76 %F225New PB!3
657Rebecca HAMMOND35:03VW35-3942.65 %F226New PB!2
658Nickie EDWARDS35:12VW60-6454.36 %F227PB stays at 00:33:2163Member of the parkrun 50 Club
659Unknown
660Unknown
661Ben BRAIN35:14SM25-2936.66 %M434PB stays at 00:30:074
662Zoe WOOLFORD-LIM35:15SW30-3441.99 %F228New PB!12
663Kirsty PALMER35:17VW40-4443.36 %F229White Rock RunnersPB stays at 00:28:4138Member of the parkrun v25 Club
664Unknown
665Helen CLEARY35:33VW35-3942.76 %F230PB stays at 00:30:1564Member of the parkrun 50 Club
666Caroline MILLER35:36VW55-5950.19 %F231New PB!3
667Susan DENNER35:37VW40-4444.17 %F232New PB!5
668Punna SINGH35:38VM50-5442.42 %M436Les Croupiers RCPB stays at 00:27:2034
669Unknown
670Chris GOLDONI35:45VM60-6445.27 %M438PB stays at 00:32:0464Member of the parkrun 50 Club
671Lewis EVANS35:46VM60-6444.83 %M439PB stays at 00:34:302
672John SMITH35:50VM60-6445.95 %M440Cardiff TriathletesPB stays at 00:33:538
673Emma PAKES35:57VW40-4443.44 %F233New PB!4
674Tom CLARKE36:05VM45-4940.55 %M441PB stays at 00:29:086
675William CLARKE36:05JM11-1441.20 %M442New PB!2
676Anne WAKE36:07VW65-6956.99 %F234PB stays at 00:33:0574Member of the parkrun 50 Club
677Caroline PETERSON36:11VW55-5949.38 %F235PB stays at 00:29:44205Member of the parkrun 100 ClubMember of the parkrun v25 Club
678Unknown
679Lucy MORGAN36:22VW35-3941.38 %F236First Timer!1
680Carol HANNA36:23VW55-5949.11 %F237PB stays at 00:32:14237Member of the parkrun 100 Club
681Farhana HASSANALI36:24VW35-3941.21 %F238New PB!2
682Lisa MUNDY36:26VW45-4943.60 %F239New PB!3
683Pauline PRICE36:31VW50-5445.92 %F240PB stays at 00:31:3629
684Parin SHAH36:37SM30-3435.64 %M444New PB!2
685Simon TAYLOR36:45VM45-4939.18 %M445New PB!3
686Rosie CONGDON36:49JW15-1742.10 %F241First Timer!1
687Sian MILE36:50VW55-5949.14 %F242PB stays at 00:29:09270Member of the parkrun 250 Club
688Chris O'BRIEN36:51SM30-3435.19 %M446First Timer!3
689Ian BARRETT36:54SM30-3435.55 %M447Les Croupiers RCPB stays at 00:28:1977Member of the parkrun 50 Club
690Gillian HAMILL37:12SW25-2939.78 %F243Run-AnonFirst Timer!14
691Fiona JOYCE37:13SW25-2939.77 %F244Vegan RunnersPB stays at 00:35:554
692Julie SHEPHARD37:36VW40-4441.84 %F245Canton ChargersPB stays at 00:36:383
693Michael DARKE37:38VM60-6443.76 %M448PB stays at 00:37:0418
694Gergely KOVACS37:41SM30-3434.63 %M449PB stays at 00:19:538
695Paul BROWNING37:58VM65-6945.00 %M450PB stays at 00:29:17240Member of the parkrun 100 Club
696Caroline AMPHLETT38:02VW45-4942.16 %F246New PB!3
697Lynette MORRIS38:18VW55-5946.65 %F247PB stays at 00:32:17180Member of the parkrun 100 Club
698Kalpana BALAKRISHNAM38:20VW40-4440.43 %F248PB stays at 00:29:0599Member of the parkrun 50 Club
699Melanie PESTICCIO38:24VW55-5947.14 %F249Whitchurch RunPB stays at 00:36:009
700Unknown
701Caitlin ELWOOD38:39SW20-2438.29 %F250First Timer!1
702Sophie HEXTER38:49SW25-2938.13 %F251PB stays at 00:37:182
703Michael MAHER38:59VM50-5438.14 %M452PB stays at 00:26:15127Member of the parkrun 100 Club
704Alan PITMAN39:07VM75-7948.44 %M453PB stays at 00:37:4239
705Roger BASSETT-JONES39:19VM55-5939.08 %M454PB stays at 00:38:2815
706Laura MULCAHY39:35SW30-3437.43 %F252CSSC Sports & LeisurePB stays at 00:29:4097Member of the parkrun 50 Club
707Steve DAVISON39:40VM75-7947.77 %M455PB stays at 00:29:132
708Denise KETTLE39:50VW45-4941.09 %F253PB stays at 00:39:373
709Andrew GRANT40:17VM55-5939.47 %M456PB stays at 00:36:1674Member of the parkrun 50 Club
710Tomos HOLST40:20JM1040.54 %M457First Timer!1
711Gerard CAMPBELL40:21VM60-6439.74 %M458Les Croupiers RCPB stays at 00:31:0440Member of the parkrun v25 Club
712Lisa PARKINSON40:23VW45-4939.33 %F254New PB!3
713Unknown
714Kathryn MURRAY40:24VW45-4941.01 %F255Les Croupiers RCPB stays at 00:33:2724
715Emma HOLST40:41VW45-4939.82 %F256PB stays at 00:32:5445
716Ioan PRYOR40:49JM1040.06 %M460PB stays at 00:39:174
717Unknown
718Carys PRYOR41:00JW1041.63 %F257New PB!2
719Sarah PRYOR41:01VW40-4438.36 %F258Pegasus RC (Cardiff)PB stays at 00:22:3750Member of the parkrun 50 Club
720Unknown
721Anne SKEDGWELL41:25VW50-5441.49 %F259PB stays at 00:41:047
722Unknown
723Sian TAYLOR41:43SW30-3435.72 %F260Les Croupiers RCPB stays at 00:26:3360Member of the parkrun 50 Club
724Gary BODMAN41:44VM55-5937.14 %M464Les Croupiers RCPB stays at 00:20:38198Member of the parkrun 100 Club
725Victoria BENFORD42:11SW25-2935.08 %F261First Timer!3
726Tracey BIN-MATT PEARSON42:47VW45-4937.87 %F262New PB!4
727Unknown
728Peter WARREN43:14VM60-6437.09 %M466PB stays at 00:24:1331
729Madhu KANNAN43:22SW30-3434.36 %F263PB stays at 00:35:0717
730Nian BABAN43:26VW35-3934.42 %F264PB stays at 00:27:4553Member of the parkrun 50 Club
731Ita LYONS44:03VW55-5942.22 %F265PB stays at 00:40:517
732Menna TALBOT44:17JW11-1435.49 %F266PB stays at 00:39:287
733John UNDERWOOD44:19VM70-7440.80 %M467New PB!26
734Alison TALBOT44:21VW45-4935.81 %F267PB stays at 00:38:258
735Dave PERKINS44:30VM50-5434.23 %M468PB stays at 00:36:1116
736Rebecca GILBERT45:23VW40-4433.71 %F268First Timer!1
737Esme GILBERT45:24JW1037.59 %F269First Timer!1
738Lucy GREENHALGH46:19JW15-1733.03 %F270PB stays at 00:42:4425Member of the parkrun 10 Club
739Dafydd MORSE46:35VM35-3928.48 %M469PB stays at 00:19:3318
740Fatemeh BAHRAMI46:41VW50-5437.77 %F271New PB!2
741Saeid SHOKRI46:44VM55-5933.45 %M470New PB!2
742Unknown
743Unknown
744Nicola DARKE46:57VW55-5939.62 %F272PB stays at 00:41:5520
745Daphne AUSTERBERRY48:37VW75-7950.77 %F273Chepstow HarriersPB stays at 00:30:43293Member of the parkrun 250 ClubMember of the parkrun v25 Club
746Lesley FOSTER50:21VW55-5936.94 %F274PB stays at 00:41:539
747Susan NOLAN1:00:24VW45-4926.30 %F275PB stays at 00:39:3029
748John ROSS1:00:25VM50-5424.80 %M473San Domenico RCPB stays at 00:19:53356Member of the parkrun 250 ClubMember of the parkrun v25 Club

Thanks to the volunteers

We are very grateful to the volunteers who made this event happen: Errol ALEXIS, Lucy BOURNE, Fiona BOURNE, Peter BRADLEY, Chris BURROUGHS, David CARTER, Terry CAVENEY, Richard CURNOW, Michael DARKE, Tim DAWE, Ben FARAG, Simon HANNA, Fiona HYDE, Carol JAMES, Mathew JAMES, Robert JEWELS, Steve B LEWIS, Firouz MAL, Jenny MARTIN, Nicola MASON, Blake MAY, Peter Hamish MCDONALD, Mick MCGEOCH, Sarah MEAH, Hannah MILES, Karen MINTO, Stephen OWEN, Danielle PHILLIPS, Sian PRYCE, Elizabeth RANDALL, John ROSS, Leanne ROSS, Eleanor SANDERS, D SCHMALJOHANN, Wendy STAMP, Angela Pauline WEEKS, Stephen WOOD, Geoff WRIGHT

Why not get involved and volunteer?

What is this table?

This table shows the complete results for the specified week at this event. It is automatically shown when you navigate to the results page, but can also be reached by clicking on Latest Results, or by picking a specific week from the Event History table. If you bookmark the Latest Results page in your browser, the bookmark will always take you to the most up to date results table. If you bookmark a results page reached via the Event History table, the bookmark will then always take you to that specific week's results.

The columns

  • Pos - the runner's overall position in the run.
  • parkrunner - is the registered name of the parkrunner; clicking on the name takes you to that person's results page for this event.
  • Time - is the runner's recorded time - we record the overall time between the run director's start instruction and the runner crossing the finish line.
  • Age
    Cat - represents the age category of the participant on the day of the run; the first letter represents the major age categories (J)unior, (S)enior and (Veteran); the second letter represents gender (M)en and (W)omen; the remainder of the category represents a more specific age range. There are two further categories for wheel chair users; WWC and MWC represent Women and Men respectively. Clicking on the result category takes you to that age categories' historical record for this event.
  • Age
    Grade
  • - Gives an indication of how well the parkrunner has done relative to their age and gender see the FAQ article for more information.
  • Gender - (M)ale or (F)emale
  • Gender
    Pos- Gender finish positions.
  • Club - Running club if registered.
  • Note - Note - Comments about PBs (Personal Bests).
  • Total Runs - Total number of runs across all parkruns, an indicator of membership of the various parkrun clubs, and their links with partner websites.

As with any of the results tables, the table can be sorted by any column by clicking on the column heading.